Search for airport 
image banner adimage banner adimage banner ad
image banner ad

PA79 - Tinicum Farms

Located in Erwinna, United States

ICAO - PA79, IATA -

Data provided by Airmate  

General information

Coordinates: N40°31'45" W75°5'59"
Elevation is 280 feet MSL.
Magnetic variation is -12° East
View others Airports in Pennsylvania

Operational data

Special qualification required
Current time UTC:
Current local time:
Weather at : KDYL - Doylestown ( 22 km )
METAR: KDYL 071154Z AUTO VRB03KT 10SM CLR 11/M01 A2992 RMK AO2 SLP131 T01111011 10111 20061 56001
View NOTAMs / SUP AIP / TFR affecting this airport [VIEW]
Communications frequencies: [VIEW]

Runways:

RWY identifierQFULength (ft)Width (ft)SurfaceLDA (ft)
08101°280060GRAVE
26281°280060GRAVE

Airport contact information

Address: Erwinna United States

Satellite view of PA79